createdAt,value
2018-04-12T00:01:04.811Z,54.90
2018-04-12T00:03:33.043Z,60.30
2018-04-12T00:06:01.315Z,59.87
2018-04-12T00:08:31.043Z,60.37
2018-04-12T00:11:00.047Z,59.83
2018-04-12T00:13:29.936Z,65.87
2018-04-12T00:15:58.041Z,64.40
2018-04-12T00:18:26.271Z,70.37
2018-04-12T00:20:55.675Z,70.43
2018-04-12T00:23:23.910Z,72.30
2018-04-12T00:25:53.646Z,71.80
2018-04-12T00:28:22.246Z,78.33
2018-04-12T00:30:51.987Z,70.83
2018-04-12T00:33:20.218Z,75.83
2018-04-12T00:35:49.206Z,74.90
2018-04-12T00:38:18.790Z,77.10
2018-04-12T00:40:46.907Z,78.73
2018-04-12T00:43:15.176Z,79.37
2018-04-12T00:45:43.411Z,83.70
2018-04-12T00:48:11.642Z,78.97
2018-04-12T00:50:40.243Z,80.53
2018-04-12T00:53:08.866Z,81.40
2018-04-12T00:55:37.191Z,76.97
2018-04-12T00:58:05.465Z,79.60
2018-04-12T01:00:33.704Z,77.00
2018-04-12T01:03:01.935Z,80.60
2018-04-12T01:05:30.471Z,78.83
2018-04-12T01:08:00.059Z,80.80
2018-04-12T01:10:28.158Z,75.17
2018-04-12T01:12:56.432Z,79.57
2018-04-12T01:15:24.667Z,82.23
2018-04-12T01:17:52.907Z,80.57
2018-04-12T01:20:21.620Z,79.50
2018-04-12T01:22:50.246Z,82.70
2018-04-12T01:25:18.480Z,80.57
2018-04-12T01:27:47.026Z,83.37
2018-04-12T01:30:16.770Z,78.80
2018-04-12T01:32:57.026Z,80.90
2018-04-12T01:35:25.263Z,85.40
2018-04-12T01:37:53.496Z,79.87
2018-04-12T01:40:22.069Z,81.90
2018-04-12T01:42:51.075Z,83.57
2018-04-12T01:45:20.083Z,83.00
2018-04-12T01:47:48.778Z,84.47
2018-04-12T01:50:18.523Z,81.23
2018-04-12T01:52:46.774Z,78.10
2018-04-12T01:55:15.830Z,79.40
2018-04-12T01:57:44.068Z,73.90
2018-04-12T02:00:12.695Z,76.40
2018-04-12T02:02:41.148Z,81.70
2018-04-12T02:05:10.895Z,78.60
2018-04-12T02:07:39.127Z,78.00
2018-04-12T02:10:09.070Z,77.93
2018-04-12T02:12:38.688Z,76.23
2018-04-12T02:15:07.687Z,77.30
2018-04-12T02:17:37.463Z,76.90
2018-04-12T02:20:05.699Z,71.77
2018-04-12T02:22:33.932Z,77.93
2018-04-12T02:25:02.551Z,71.90
2018-04-12T02:27:31.174Z,72.60
2018-04-12T02:29:59.416Z,71.93
2018-04-12T02:32:27.826Z,71.93
2018-04-12T02:34:56.476Z,67.80
2018-04-12T02:37:25.834Z,71.10
2018-04-12T02:39:54.630Z,73.00
2018-04-12T02:42:24.210Z,67.67
2018-04-12T02:44:52.318Z,64.90
2018-04-12T02:47:20.591Z,68.03
2018-04-12T02:49:48.824Z,65.97
2018-04-12T02:52:17.063Z,63.23
2018-04-12T02:54:46.698Z,68.13
2018-04-12T02:57:15.574Z,64.93
2018-04-12T02:59:49.346Z,65.30
2018-04-12T03:02:17.579Z,63.27
2018-04-12T03:04:46.953Z,63.77
2018-04-12T03:07:16.006Z,62.20
2018-04-12T03:09:45.055Z,60.50
2018-04-12T03:12:14.007Z,63.80
2018-04-12T03:14:43.758Z,62.87
2018-04-12T03:17:13.502Z,60.33
2018-04-12T03:19:42.501Z,59.77
2018-04-12T03:22:11.882Z,60.50
2018-04-12T03:24:40.878Z,59.43
2018-04-12T03:27:09.879Z,58.30
2018-04-12T03:29:38.908Z,58.87
2018-04-12T03:32:07.144Z,57.10
2018-04-12T03:34:36.722Z,59.40
2018-04-12T03:37:04.934Z,57.00
2018-04-12T03:39:34.522Z,56.87
2018-04-12T03:42:02.631Z,58.40
2018-04-12T03:44:31.270Z,60.20
2018-04-12T03:47:00.854Z,55.50
2018-04-12T03:49:29.035Z,56.50
2018-04-12T03:51:57.722Z,58.00
2018-04-12T03:54:27.306Z,60.17
2018-04-12T03:56:55.415Z,55.47
2018-04-12T03:59:23.778Z,56.57
2018-04-12T04:01:52.301Z,57.30
2018-04-12T04:04:20.527Z,56.67
2018-04-12T04:06:50.045Z,54.40
2018-04-12T04:09:18.263Z,54.50
2018-04-12T04:11:46.523Z,53.03
2018-04-12T04:14:26.639Z,55.07
2018-04-12T04:17:06.696Z,52.50
2018-04-12T04:19:47.025Z,52.70
2018-04-12T04:22:16.395Z,53.03
2018-04-12T04:24:44.628Z,51.57
2018-04-12T04:27:13.071Z,55.10
2018-04-12T04:29:42.814Z,51.63
2018-04-12T04:32:11.447Z,54.60
2018-04-12T04:34:39.922Z,53.03
2018-04-12T04:37:08.923Z,54.80
2018-04-12T04:39:37.154Z,55.43
2018-04-12T04:42:05.522Z,52.87
2018-04-12T04:44:33.759Z,57.50
2018-04-12T04:47:01.997Z,55.83
2018-04-12T04:49:30.303Z,54.50
2018-04-12T04:51:58.539Z,52.07
2018-04-12T04:54:27.914Z,52.83
2018-04-12T04:56:56.691Z,54.10
2018-04-12T04:59:26.274Z,52.00
2018-04-12T05:01:54.775Z,54.67
2018-04-12T05:04:24.472Z,52.53
2018-04-12T05:06:53.467Z,51.03
2018-04-12T05:09:22.470Z,51.67
2018-04-12T05:11:50.735Z,52.77
2018-04-12T05:14:18.975Z,52.53
2018-04-12T05:16:47.207Z,53.20
2018-04-12T05:19:17.454Z,53.00
2018-04-12T05:21:47.199Z,49.33
2018-04-12T05:24:15.432Z,50.57
2018-04-12T05:26:44.098Z,52.07
2018-04-12T05:29:13.681Z,50.50
2018-04-12T05:31:41.790Z,55.00
2018-04-12T05:34:10.150Z,53.23
2018-04-12T05:36:38.392Z,51.67
2018-04-12T05:39:07.974Z,51.67
2018-04-12T05:41:37.171Z,52.27
2018-04-12T05:44:06.754Z,50.20
2018-04-12T05:46:34.858Z,52.10
2018-04-12T05:49:03.551Z,53.40
2018-04-12T05:51:32.923Z,52.40
2018-04-12T05:54:01.153Z,51.00
2018-04-12T05:56:30.562Z,47.43
2018-04-12T05:58:58.790Z,49.30
2018-04-12T06:01:27.791Z,51.00
2018-04-12T06:03:57.525Z,49.53
2018-04-12T06:06:25.630Z,49.37
2018-04-12T06:08:55.370Z,51.37
2018-04-12T06:11:25.142Z,48.30
2018-04-12T06:13:53.379Z,50.43
2018-04-12T06:16:21.612Z,49.47
2018-04-12T06:18:50.753Z,49.70
2018-04-12T06:21:19.773Z,50.80
2018-04-12T06:23:48.738Z,49.10
2018-04-12T06:26:17.290Z,51.00
2018-04-12T06:28:45.919Z,50.30
2018-04-12T06:31:14.159Z,51.40
2018-04-12T06:33:42.430Z,52.13
2018-04-12T06:36:10.666Z,50.53
2018-04-12T06:38:38.898Z,50.03
2018-04-12T06:41:07.506Z,50.70
2018-04-12T06:43:35.746Z,52.50
2018-04-12T06:46:04.742Z,49.57
2018-04-12T06:48:33.230Z,50.93
2018-04-12T06:51:02.815Z,51.93
2018-04-12T06:53:32.058Z,51.87
2018-04-12T06:56:00.362Z,51.83
2018-04-12T06:58:30.103Z,51.70
2018-04-12T07:00:59.479Z,52.10
2018-04-12T07:03:28.163Z,52.50
2018-04-12T07:05:58.175Z,51.97
2018-04-12T07:08:26.383Z,55.47
2018-04-12T07:10:57.978Z,52.23
2018-04-12T07:13:26.978Z,54.27
2018-04-12T07:15:55.211Z,53.97
2018-04-12T07:18:24.396Z,51.17
2018-04-12T07:20:52.621Z,51.87
2018-04-12T07:23:22.363Z,52.40
2018-04-12T07:25:51.454Z,51.50
2018-04-12T07:28:19.686Z,54.47
2018-04-12T07:30:48.697Z,54.43
2018-04-12T07:33:18.956Z,53.07
2018-04-12T07:35:47.187Z,54.60
2018-04-12T07:38:16.775Z,55.40
2018-04-12T07:40:45.315Z,55.37
2018-04-12T07:43:13.546Z,53.13
2018-04-12T07:45:41.778Z,54.90
2018-04-12T07:48:11.642Z,53.37
2018-04-12T07:50:40.515Z,52.43
2018-04-12T07:53:08.752Z,52.90
2018-04-12T07:55:38.702Z,56.97
2018-04-12T07:58:07.951Z,55.50
2018-04-12T08:00:36.182Z,56.03
2018-04-12T08:03:05.799Z,58.70
2018-04-12T08:05:34.670Z,57.33
2018-04-12T08:08:03.007Z,57.40
2018-04-12T08:10:31.327Z,58.77
2018-04-12T08:13:00.698Z,58.60
2018-04-12T08:15:30.281Z,56.57
2018-04-12T08:17:59.770Z,58.67
2018-04-12T08:20:28.007Z,57.80
2018-04-12T08:22:56.247Z,58.67
2018-04-12T08:25:25.660Z,61.10
2018-04-12T08:27:53.895Z,57.27
2018-04-12T08:30:22.177Z,60.00
2018-04-12T08:32:50.598Z,61.43
2018-04-12T08:35:19.598Z,60.50
2018-04-12T08:37:49.099Z,60.10
2018-04-12T08:40:18.499Z,61.30
2018-04-12T08:42:46.730Z,60.73
2018-04-12T08:45:16.102Z,58.97
2018-04-12T08:47:45.156Z,61.53
2018-04-12T08:50:13.390Z,60.33
2018-04-12T08:52:42.391Z,59.40
2018-04-12T08:55:10.759Z,61.20
2018-04-12T08:57:39.391Z,59.90
2018-04-12T09:00:07.626Z,61.00
2018-04-12T09:02:35.898Z,58.60
2018-04-12T09:05:04.130Z,62.83
2018-04-12T09:07:33.706Z,62.17
2018-04-12T09:10:04.034Z,62.40
2018-04-12T09:12:33.407Z,61.07
2018-04-12T09:15:01.639Z,58.30
2018-04-12T09:17:30.379Z,62.37
2018-04-12T09:19:59.827Z,61.27
2018-04-12T09:22:28.798Z,60.27
2018-04-12T09:24:58.579Z,60.03
2018-04-12T09:27:26.811Z,62.80
2018-04-12T09:29:55.047Z,62.40
2018-04-12T09:32:23.343Z,61.73
2018-04-12T09:34:51.578Z,63.77
2018-04-12T09:37:20.579Z,64.10
2018-04-12T09:39:49.626Z,61.10
2018-04-12T09:42:18.622Z,59.57
2018-04-12T09:44:47.622Z,56.93
2018-04-12T09:47:16.255Z,54.70
2018-04-12T09:49:45.255Z,57.30
2018-04-12T09:52:14.263Z,58.30
2018-04-12T09:54:44.046Z,55.93
2018-04-12T09:57:12.282Z,52.10
2018-04-12T09:59:40.515Z,51.23
2018-04-12T10:02:10.162Z,52.93
2018-04-12T10:04:45.523Z,49.23
2018-04-12T10:07:17.422Z,51.23
2018-04-12T10:09:46.054Z,49.73
2018-04-12T10:12:15.630Z,47.20
2018-04-12T10:14:44.174Z,47.90
2018-04-12T10:17:12.407Z,47.70
2018-04-12T10:19:40.643Z,48.10
2018-04-12T10:22:09.179Z,47.27
2018-04-12T10:24:37.415Z,47.87
2018-04-12T10:27:06.787Z,46.97
2018-04-12T10:29:35.836Z,48.10
2018-04-12T10:32:05.431Z,46.77
2018-04-12T10:34:33.539Z,46.40
2018-04-12T10:37:02.067Z,45.30
2018-04-12T10:39:31.708Z,47.77
2018-04-12T10:41:59.771Z,49.90
2018-04-12T10:44:28.196Z,45.33
2018-04-12T10:46:56.366Z,44.07
2018-04-12T10:49:24.598Z,44.40
2018-04-12T10:51:54.488Z,44.00
2018-04-12T10:54:24.194Z,45.00
2018-04-12T10:56:52.426Z,48.53
2018-04-12T10:59:22.344Z,48.30
2018-04-12T11:01:51.783Z,46.53
2018-04-12T11:04:21.394Z,45.43
2018-04-12T11:06:51.094Z,48.20
2018-04-12T11:09:19.201Z,47.27
2018-04-12T11:11:48.943Z,46.60
2018-04-12T11:14:19.006Z,45.33
2018-04-12T11:16:47.235Z,45.70
2018-04-12T11:19:15.475Z,46.87
2018-04-12T11:21:44.118Z,45.73
2018-04-12T11:24:12.359Z,44.30
2018-04-12T11:26:41.355Z,45.20
2018-04-12T11:29:09.835Z,44.67
2018-04-12T11:31:39.601Z,45.17
2018-04-12T11:34:08.600Z,42.73
2018-04-12T11:36:36.935Z,41.50
2018-04-12T11:39:05.934Z,43.27
2018-04-12T11:41:34.929Z,43.10
2018-04-12T11:44:04.564Z,41.13
2018-04-12T11:46:34.314Z,39.40
2018-04-12T11:49:03.339Z,39.53
2018-04-12T11:51:31.930Z,37.73
2018-04-12T11:54:00.567Z,40.13
2018-04-12T11:56:28.839Z,38.67
2018-04-12T11:58:57.936Z,40.70
2018-04-12T12:01:27.671Z,37.20
2018-04-12T12:03:55.902Z,35.50
2018-04-12T12:06:25.550Z,37.97
2018-04-12T12:08:54.431Z,37.13
2018-04-12T12:11:23.430Z,37.47
2018-04-12T12:13:52.079Z,38.13
2018-04-12T12:16:22.059Z,35.60
2018-04-12T12:18:52.475Z,38.17
2018-04-12T12:21:20.710Z,35.60
2018-04-12T12:23:49.007Z,36.70
2018-04-12T12:26:18.747Z,37.80
2018-04-12T12:28:46.985Z,34.77
2018-04-12T12:31:15.219Z,36.73
2018-04-12T12:33:43.531Z,36.73
2018-04-12T12:36:11.762Z,36.20
2018-04-12T12:38:41.506Z,37.10
2018-04-12T12:41:10.934Z,35.80
2018-04-12T12:43:39.167Z,37.90
2018-04-12T12:46:08.910Z,36.20
2018-04-12T12:48:38.351Z,34.60
2018-04-12T12:51:07.351Z,35.10
2018-04-12T12:53:36.351Z,34.67
2018-04-12T12:56:09.635Z,37.43
2018-04-12T12:58:37.708Z,36.43
2018-04-12T13:01:05.939Z,37.33
2018-04-12T13:03:34.210Z,36.53
2018-04-12T13:06:02.442Z,35.77
2018-04-12T13:08:30.678Z,37.00
2018-04-12T13:10:58.955Z,38.47
2018-04-12T13:13:27.213Z,39.23
2018-04-12T13:15:55.431Z,35.87
2018-04-12T13:18:24.842Z,37.90
2018-04-12T13:20:54.583Z,36.87
2018-04-12T13:23:22.821Z,38.80
2018-04-12T13:25:51.108Z,37.63
2018-04-12T13:28:20.855Z,37.90
2018-04-12T13:30:49.090Z,37.53
2018-04-12T13:33:17.417Z,38.27
2018-04-12T13:35:45.611Z,37.07
2018-04-12T13:38:15.181Z,38.50
2018-04-12T13:40:46.699Z,37.37
2018-04-12T13:43:16.450Z,38.20
2018-04-12T13:45:44.683Z,36.53
2018-04-12T13:48:13.890Z,37.13
2018-04-12T13:50:42.893Z,37.20
2018-04-12T13:53:11.122Z,37.70
2018-04-12T13:55:40.259Z,39.17
2018-04-12T13:58:08.494Z,39.73
2018-04-12T14:00:36.727Z,39.03
2018-04-12T14:03:12.610Z,37.03
2018-04-12T14:05:41.619Z,38.60
2018-04-12T14:08:10.615Z,40.63
2018-04-12T14:10:39.165Z,39.80
2018-04-12T14:13:08.947Z,39.93
2018-04-12T14:15:38.511Z,39.10
2018-04-12T14:18:07.655Z,37.83
2018-04-12T14:20:37.635Z,37.57
2018-04-12T14:23:05.867Z,38.27
2018-04-12T14:25:34.919Z,36.93
2018-04-12T14:28:03.546Z,39.30
2018-04-12T14:30:32.551Z,37.80
2018-04-12T14:33:01.158Z,36.67
2018-04-12T14:35:29.790Z,38.73
2018-04-12T14:37:58.040Z,38.80
2018-04-12T14:40:26.571Z,39.53
2018-04-12T14:42:56.315Z,37.80
2018-04-12T14:45:24.947Z,40.00
2018-04-12T14:47:54.631Z,38.17
2018-04-12T14:50:22.862Z,40.87
2018-04-12T14:52:51.099Z,39.07
2018-04-12T14:55:19.666Z,37.10
2018-04-12T14:57:47.906Z,39.40
2018-04-12T15:00:16.943Z,40.87
2018-04-12T15:02:45.215Z,37.43
2018-04-12T15:05:13.450Z,39.20
2018-04-12T15:07:42.083Z,42.20
2018-04-12T15:10:11.735Z,39.13
2018-04-12T15:12:41.475Z,39.17
2018-04-12T15:15:10.481Z,38.40
2018-04-12T15:17:40.334Z,39.80
2018-04-12T15:20:08.966Z,40.97
2018-04-12T15:22:38.207Z,37.40
2018-04-12T15:25:06.879Z,37.67
2018-04-12T15:27:36.248Z,35.80
2018-04-12T15:30:04.483Z,38.53
2018-04-12T15:32:34.311Z,37.97
2018-04-12T15:35:02.428Z,35.90
2018-04-12T15:37:30.663Z,36.43
2018-04-12T15:39:59.462Z,37.17
2018-04-12T15:42:29.050Z,36.10
2018-04-12T15:44:57.158Z,36.50
2018-04-12T15:47:25.479Z,37.13
2018-04-12T15:49:55.227Z,34.77
2018-04-12T15:52:24.222Z,34.13
2018-04-12T15:54:52.496Z,32.40
2018-04-12T15:57:20.722Z,31.07
2018-04-12T15:59:50.461Z,31.87
2018-04-12T16:02:19.099Z,31.47
2018-04-12T16:04:48.107Z,31.07
2018-04-12T16:07:18.484Z,32.27
2018-04-12T16:09:48.148Z,33.27
2018-04-12T16:12:16.385Z,31.00
2018-04-12T16:14:44.617Z,32.30
2018-04-12T16:17:13.518Z,48.23
2018-04-12T16:19:42.524Z,32.40
2018-04-12T16:22:11.532Z,33.30
2018-04-12T16:24:40.520Z,33.10
2018-04-12T16:27:09.160Z,31.77
2018-04-12T16:29:37.387Z,33.60
2018-04-12T16:32:05.990Z,31.00
2018-04-12T16:34:34.231Z,33.30
2018-04-12T16:37:02.459Z,34.20
2018-04-12T16:39:31.980Z,31.23
2018-04-12T16:42:01.724Z,31.83
2018-04-12T16:44:30.349Z,32.60
2018-04-12T16:46:58.619Z,31.73
2018-04-12T16:49:28.206Z,33.00
2018-04-12T16:51:56.319Z,31.83
2018-04-12T16:54:25.491Z,32.13
2018-04-12T16:56:54.123Z,30.80
2018-04-12T16:59:22.367Z,30.20
2018-04-12T17:01:51.122Z,34.00
2018-04-12T17:04:19.350Z,30.53
2018-04-12T17:06:47.587Z,33.50
2018-04-12T17:09:16.075Z,31.50
2018-04-12T17:11:45.079Z,30.40
2018-04-12T17:14:14.074Z,30.90
2018-04-12T17:16:43.255Z,33.07
2018-04-12T17:19:11.523Z,30.97
2018-04-12T17:21:39.722Z,31.00
2018-04-12T17:24:08.846Z,29.67
2018-04-12T17:26:37.711Z,30.33
2018-04-12T17:29:05.959Z,30.57
2018-04-12T17:31:35.873Z,32.40
2018-04-12T17:34:04.106Z,35.30
2018-04-12T17:36:32.739Z,33.60
2018-04-12T17:39:02.361Z,33.57
2018-04-12T17:41:30.477Z,37.50
2018-04-12T17:43:58.710Z,35.27
2018-04-12T17:46:30.162Z,35.50
2018-04-12T17:48:58.800Z,39.57
2018-04-12T17:51:27.031Z,37.47
2018-04-12T17:53:55.562Z,37.23
2018-04-12T17:56:26.857Z,38.50
2018-04-12T17:58:55.667Z,39.17
2018-04-12T18:01:23.901Z,36.47
2018-04-12T18:03:53.646Z,38.13
2018-04-12T18:06:22.507Z,36.60
2018-04-12T18:08:51.510Z,36.67
2018-04-12T18:11:19.741Z,37.10
2018-04-12T18:13:49.422Z,38.93
2018-04-12T18:16:18.672Z,40.00
2018-04-12T18:18:46.906Z,69.87
2018-04-12T18:21:16.423Z,44.93
2018-04-12T18:23:46.166Z,42.90
2018-04-12T18:26:14.399Z,36.87
2018-04-12T18:28:43.487Z,39.97
2018-04-12T18:31:12.483Z,39.13
2018-04-12T18:33:42.066Z,41.40
2018-04-12T18:36:11.155Z,42.30
2018-04-12T18:38:40.898Z,40.50
2018-04-12T18:41:09.895Z,41.37
2018-04-12T18:43:39.669Z,43.53
2018-04-12T18:46:09.126Z,44.30
2018-04-12T18:48:38.590Z,44.80
2018-04-12T18:51:09.395Z,42.73
2018-04-12T18:53:38.854Z,41.30
2018-04-12T18:56:08.321Z,42.83
2018-04-12T18:58:37.981Z,44.10
2018-04-12T19:01:07.446Z,41.30
2018-04-12T19:03:36.893Z,43.47
2018-04-12T19:06:06.406Z,41.00
2018-04-12T19:08:35.862Z,41.80
2018-04-12T19:11:05.323Z,42.93
2018-04-12T19:13:35.526Z,41.07
2018-04-12T19:16:04.926Z,43.13
2018-04-12T19:18:34.384Z,43.73
2018-04-12T19:21:09.607Z,47.20
2018-04-12T19:23:39.062Z,44.90
2018-04-12T19:26:08.522Z,43.13
2018-04-12T19:28:38.103Z,43.37
2018-04-12T19:31:07.690Z,90.43
2018-04-12T19:33:37.151Z,48.40
2018-04-12T19:36:06.803Z,44.40
2018-04-12T19:38:36.258Z,44.53
2018-04-12T19:41:05.723Z,39.57
2018-04-12T19:43:35.414Z,40.77
2018-04-12T19:46:04.861Z,43.10
2018-04-12T19:48:34.318Z,37.17
2018-04-12T19:51:03.815Z,39.47
2018-04-12T19:53:33.266Z,38.53
2018-04-12T19:56:02.732Z,42.40
2018-04-12T19:58:32.902Z,34.40
2018-04-12T20:01:02.362Z,30.87
2018-04-12T20:03:31.827Z,30.00
2018-04-12T20:06:01.522Z,26.10
2018-04-12T20:08:30.982Z,26.67
2018-04-12T20:11:00.472Z,24.10
2018-04-12T20:13:30.262Z,24.17
2018-04-12T20:15:59.718Z,27.17
2018-04-12T20:18:29.173Z,24.40
2018-04-12T20:20:58.975Z,26.40
2018-04-12T20:23:28.415Z,22.50
2018-04-12T20:25:57.874Z,24.70
2018-04-12T20:28:27.643Z,23.10
2018-04-12T20:30:57.100Z,24.10
2018-04-12T20:33:27.113Z,25.60
2018-04-12T20:35:56.570Z,24.57
2018-04-12T20:38:26.108Z,25.63
2018-04-12T20:40:55.601Z,24.80
2018-04-12T20:43:25.058Z,26.17
2018-04-12T20:45:54.520Z,25.67
2018-04-12T20:48:24.298Z,27.63
2018-04-12T20:50:53.754Z,27.73
2018-04-12T20:53:23.213Z,28.87
2018-04-12T20:55:53.411Z,28.57
2018-04-12T20:58:22.872Z,27.20
2018-04-12T21:00:52.325Z,27.73
2018-04-12T21:03:21.821Z,29.20
2018-04-12T21:05:51.286Z,28.27
2018-04-12T21:08:20.764Z,27.37
2018-04-12T21:10:50.230Z,27.90
2018-04-12T21:13:19.681Z,28.50
2018-04-12T21:15:49.138Z,27.20
2018-04-12T21:18:18.735Z,30.37
2018-04-12T21:20:48.194Z,27.80
2018-04-12T21:23:17.646Z,30.10
2018-04-12T21:25:47.166Z,27.73
2018-04-12T21:28:16.627Z,35.87
2018-04-12T21:30:46.081Z,39.47
2018-04-12T21:33:16.191Z,30.50
2018-04-12T21:35:45.658Z,29.70
2018-04-12T21:38:15.127Z,30.50
2018-04-12T21:40:44.812Z,28.17
2018-04-12T21:43:14.270Z,30.33
2018-04-12T21:45:43.730Z,30.27
2018-04-12T21:48:13.258Z,26.97
2018-04-12T21:50:42.713Z,27.87
2018-04-12T21:53:12.169Z,26.87
2018-04-12T21:55:41.670Z,29.80
2018-04-12T21:58:11.121Z,30.10
2018-04-12T22:00:40.595Z,28.40
2018-04-12T22:03:10.285Z,27.37
2018-04-12T22:05:39.746Z,26.77
2018-04-12T22:08:09.206Z,25.73
2018-04-12T22:10:38.718Z,25.63
2018-04-12T22:13:08.174Z,26.70
2018-04-12T22:15:37.639Z,25.90
2018-04-12T22:18:07.394Z,23.83
2018-04-12T22:20:36.862Z,51.50
2018-04-12T22:23:06.325Z,97.87
2018-04-12T22:25:36.298Z,26.73
2018-04-12T22:28:05.751Z,25.50
2018-04-12T22:30:35.217Z,26.70
2018-04-12T22:33:04.705Z,28.33
2018-04-12T22:35:34.174Z,26.67
2018-04-12T22:38:03.630Z,27.43
2018-04-12T22:40:33.122Z,25.90
2018-04-12T22:43:02.588Z,26.40
2018-04-12T22:45:32.047Z,27.80
2018-04-12T22:48:01.639Z,26.10
2018-04-12T22:50:31.089Z,27.83
2018-04-12T22:53:00.555Z,26.43
2018-04-12T22:55:30.373Z,28.10
2018-04-12T22:57:59.830Z,28.97
2018-04-12T23:00:29.285Z,28.47
2018-04-12T23:02:59.891Z,29.87
2018-04-12T23:05:29.351Z,31.97
2018-04-12T23:07:58.811Z,28.47
2018-04-12T23:10:28.690Z,31.53
2018-04-12T23:12:58.154Z,30.47
2018-04-12T23:15:27.614Z,30.73
2018-04-12T23:17:57.107Z,28.57
2018-04-12T23:20:25.612Z,30.97
2018-04-12T23:22:55.194Z,31.30
2018-04-12T23:25:24.808Z,33.10
2018-04-12T23:27:54.266Z,29.10
2018-04-12T23:30:23.722Z,28.67
2018-04-12T23:32:52.519Z,29.20
2018-04-12T23:35:20.762Z,29.87
2018-04-12T23:37:49.198Z,28.30
2018-04-12T23:40:19.158Z,29.10
2018-04-12T23:42:47.395Z,33.83
2018-04-12T23:45:15.622Z,33.70
2018-04-12T23:47:45.403Z,32.33
2018-04-12T23:50:13.627Z,32.10
2018-04-12T23:52:43.210Z,33.97
2018-04-12T23:55:11.358Z,32.60
2018-04-12T23:57:39.595Z,32.40
